sensor_id;sensor_type;location;lat;lon;timestamp;P1;durP1;ratioP1;P2;durP2;ratioP2
11082;SDS011;5595;50.186;8.468;2023-04-06T00:00:27;2.07;;;0.40;;
11082;SDS011;5595;50.186;8.468;2023-04-06T00:02:54;1.80;;;0.50;;
11082;SDS011;5595;50.186;8.468;2023-04-06T00:05:21;0.60;;;0.30;;
11082;SDS011;5595;50.186;8.468;2023-04-06T00:07:48;0.73;;;0.70;;
11082;SDS011;5595;50.186;8.468;2023-04-06T00:10:15;1.70;;;0.40;;
11082;SDS011;5595;50.186;8.468;2023-04-06T00:12:42;0.70;;;0.37;;
11082;SDS011;5595;50.186;8.468;2023-04-06T00:15:11;0.90;;;0.60;;
11082;SDS011;5595;50.186;8.468;2023-04-06T00:17:38;0.97;;;0.40;;
11082;SDS011;5595;50.186;8.468;2023-04-06T00:20:06;1.37;;;0.70;;
11082;SDS011;5595;50.186;8.468;2023-04-06T00:22:33;0.13;;;0.13;;
11082;SDS011;5595;50.186;8.468;2023-04-06T00:25:00;0.40;;;0.30;;
11082;SDS011;5595;50.186;8.468;2023-04-06T00:27:27;0.90;;;0.40;;
11082;SDS011;5595;50.186;8.468;2023-04-06T00:29:54;2.70;;;0.63;;
11082;SDS011;5595;50.186;8.468;2023-04-06T00:32:23;0.40;;;0.30;;
11082;SDS011;5595;50.186;8.468;2023-04-06T00:34:50;2.17;;;0.43;;
11082;SDS011;5595;50.186;8.468;2023-04-06T00:37:17;1.37;;;0.30;;
11082;SDS011;5595;50.186;8.468;2023-04-06T00:39:44;0.10;;;0.10;;
11082;SDS011;5595;50.186;8.468;2023-04-06T00:42:12;2.00;;;0.43;;
11082;SDS011;5595;50.186;8.468;2023-04-06T00:44:39;1.70;;;0.57;;
11082;SDS011;5595;50.186;8.468;2023-04-06T00:47:06;0.40;;;0.40;;
11082;SDS011;5595;50.186;8.468;2023-04-06T00:49:35;0.27;;;0.13;;
11082;SDS011;5595;50.186;8.468;2023-04-06T00:52:02;0.60;;;0.33;;
11082;SDS011;5595;50.186;8.468;2023-04-06T00:54:29;2.10;;;0.60;;
11082;SDS011;5595;50.186;8.468;2023-04-06T00:56:56;0.40;;;0.30;;
11082;SDS011;5595;50.186;8.468;2023-04-06T00:59:23;0.80;;;0.30;;
11082;SDS011;5595;50.186;8.468;2023-04-06T01:01:50;1.17;;;0.63;;
11082;SDS011;5595;50.186;8.468;2023-04-06T01:04:18;1.17;;;0.80;;
11082;SDS011;5595;50.186;8.468;2023-04-06T01:06:48;1.67;;;0.57;;
11082;SDS011;5595;50.186;8.468;2023-04-06T01:09:15;1.63;;;0.73;;
11082;SDS011;5595;50.186;8.468;2023-04-06T01:11:42;1.87;;;0.90;;
11082;SDS011;5595;50.186;8.468;2023-04-06T01:14:09;2.07;;;0.50;;
11082;SDS011;5595;50.186;8.468;2023-04-06T01:16:36;1.90;;;0.40;;
11082;SDS011;5595;50.186;8.468;2023-04-06T01:19:06;1.63;;;0.40;;
11082;SDS011;5595;50.186;8.468;2023-04-06T01:21:34;2.03;;;0.90;;
11082;SDS011;5595;50.186;8.468;2023-04-06T01:24:03;4.30;;;0.70;;
11082;SDS011;5595;50.186;8.468;2023-04-06T01:26:31;0.70;;;0.43;;
11082;SDS011;5595;50.186;8.468;2023-04-06T01:28:58;0.83;;;0.67;;
11082;SDS011;5595;50.186;8.468;2023-04-06T01:31:26;1.47;;;0.43;;
11082;SDS011;5595;50.186;8.468;2023-04-06T01:33:53;1.20;;;0.43;;
11082;SDS011;5595;50.186;8.468;2023-04-06T01:36:20;0.93;;;0.40;;
11082;SDS011;5595;50.186;8.468;2023-04-06T01:38:47;1.57;;;0.57;;
11082;SDS011;5595;50.186;8.468;2023-04-06T01:41:16;0.80;;;0.60;;
11082;SDS011;5595;50.186;8.468;2023-04-06T01:43:43;0.50;;;0.40;;
11082;SDS011;5595;50.186;8.468;2023-04-06T01:46:11;0.57;;;0.57;;
11082;SDS011;5595;50.186;8.468;2023-04-06T01:48:38;2.10;;;0.93;;
11082;SDS011;5595;50.186;8.468;2023-04-06T01:51:05;1.23;;;0.47;;
11082;SDS011;5595;50.186;8.468;2023-04-06T01:53:32;1.50;;;0.77;;
11082;SDS011;5595;50.186;8.468;2023-04-06T01:55:59;1.43;;;0.70;;
11082;SDS011;5595;50.186;8.468;2023-04-06T01:58:27;0.67;;;0.60;;
11082;SDS011;5595;50.186;8.468;2023-04-06T02:00:54;0.83;;;0.53;;
11082;SDS011;5595;50.186;8.468;2023-04-06T02:03:22;0.90;;;0.43;;
11082;SDS011;5595;50.186;8.468;2023-04-06T02:05:49;3.37;;;0.53;;
11082;SDS011;5595;50.186;8.468;2023-04-06T02:08:15;2.00;;;0.30;;
11082;SDS011;5595;50.186;8.468;2023-04-06T02:10:42;1.43;;;0.80;;
11082;SDS011;5595;50.186;8.468;2023-04-06T02:13:09;1.90;;;0.60;;
11082;SDS011;5595;50.186;8.468;2023-04-06T02:15:38;1.10;;;0.63;;
11082;SDS011;5595;50.186;8.468;2023-04-06T02:18:05;1.40;;;0.50;;
11082;SDS011;5595;50.186;8.468;2023-04-06T02:20:32;0.27;;;0.27;;
11082;SDS011;5595;50.186;8.468;2023-04-06T02:22:58;2.57;;;1.10;;
11082;SDS011;5595;50.186;8.468;2023-04-06T02:25:26;0.30;;;0.30;;
11082;SDS011;5595;50.186;8.468;2023-04-06T02:27:53;1.13;;;0.57;;
11082;SDS011;5595;50.186;8.468;2023-04-06T02:30:20;0.70;;;0.33;;
11082;SDS011;5595;50.186;8.468;2023-04-06T02:32:49;1.60;;;0.40;;
11082;SDS011;5595;50.186;8.468;2023-04-06T02:35:16;0.87;;;0.40;;
11082;SDS011;5595;50.186;8.468;2023-04-06T02:37:43;0.50;;;0.50;;
11082;SDS011;5595;50.186;8.468;2023-04-06T02:40:10;0.50;;;0.50;;
11082;SDS011;5595;50.186;8.468;2023-04-06T02:42:37;0.57;;;0.37;;
11082;SDS011;5595;50.186;8.468;2023-04-06T02:45:04;0.50;;;0.30;;
11082;SDS011;5595;50.186;8.468;2023-04-06T02:47:32;0.83;;;0.47;;
11082;SDS011;5595;50.186;8.468;2023-04-06T02:50:01;0.37;;;0.20;;
11082;SDS011;5595;50.186;8.468;2023-04-06T02:52:28;1.70;;;0.47;;
11082;SDS011;5595;50.186;8.468;2023-04-06T02:54:55;0.97;;;0.50;;
11082;SDS011;5595;50.186;8.468;2023-04-06T02:57:22;0.60;;;0.60;;
11082;SDS011;5595;50.186;8.468;2023-04-06T02:59:49;0.50;;;0.50;;
11082;SDS011;5595;50.186;8.468;2023-04-06T03:02:16;0.77;;;0.43;;
11082;SDS011;5595;50.186;8.468;2023-04-06T03:04:43;0.43;;;0.20;;
11082;SDS011;5595;50.186;8.468;2023-04-06T03:07:12;0.67;;;0.30;;
11082;SDS011;5595;50.186;8.468;2023-04-06T03:09:39;4.73;;;0.50;;
11082;SDS011;5595;50.186;8.468;2023-04-06T03:12:06;4.67;;;0.90;;
11082;SDS011;5595;50.186;8.468;2023-04-06T03:14:33;0.27;;;0.10;;
11082;SDS011;5595;50.186;8.468;2023-04-06T03:17:00;0.37;;;0.30;;
11082;SDS011;5595;50.186;8.468;2023-04-06T03:19:27;0.23;;;0.13;;
11082;SDS011;5595;50.186;8.468;2023-04-06T03:21:54;0.67;;;0.33;;
11082;SDS011;5595;50.186;8.468;2023-04-06T03:24:22;1.00;;;0.53;;
11082;SDS011;5595;50.186;8.468;2023-04-06T03:26:49;0.30;;;0.30;;
11082;SDS011;5595;50.186;8.468;2023-04-06T03:29:16;0.70;;;0.53;;
11082;SDS011;5595;50.186;8.468;2023-04-06T03:31:43;3.20;;;0.60;;
11082;SDS011;5595;50.186;8.468;2023-04-06T03:34:10;1.57;;;0.53;;
11082;SDS011;5595;50.186;8.468;2023-04-06T03:36:37;1.00;;;0.50;;
11082;SDS011;5595;50.186;8.468;2023-04-06T03:39:04;0.40;;;0.40;;
11082;SDS011;5595;50.186;8.468;2023-04-06T03:41:32;0.67;;;0.57;;
11082;SDS011;5595;50.186;8.468;2023-04-06T03:43:59;1.30;;;0.60;;
11082;SDS011;5595;50.186;8.468;2023-04-06T03:46:26;0.70;;;0.53;;
11082;SDS011;5595;50.186;8.468;2023-04-06T03:48:53;0.60;;;0.50;;
11082;SDS011;5595;50.186;8.468;2023-04-06T03:51:20;1.70;;;0.63;;
11082;SDS011;5595;50.186;8.468;2023-04-06T03:53:47;0.67;;;0.50;;
11082;SDS011;5595;50.186;8.468;2023-04-06T03:56:14;0.97;;;0.60;;
11082;SDS011;5595;50.186;8.468;2023-04-06T03:58:42;0.43;;;0.30;;
11082;SDS011;5595;50.186;8.468;2023-04-06T04:01:10;2.57;;;0.70;;
11082;SDS011;5595;50.186;8.468;2023-04-06T04:03:37;2.17;;;0.60;;
11082;SDS011;5595;50.186;8.468;2023-04-06T04:06:04;0.63;;;0.30;;
11082;SDS011;5595;50.186;8.468;2023-04-06T04:08:31;0.60;;;0.40;;
11082;SDS011;5595;50.186;8.468;2023-04-06T04:10:58;0.90;;;0.37;;
11082;SDS011;5595;50.186;8.468;2023-04-06T04:13:25;2.30;;;0.73;;
11082;SDS011;5595;50.186;8.468;2023-04-06T04:15:53;1.63;;;0.60;;
11082;SDS011;5595;50.186;8.468;2023-04-06T04:18:20;0.83;;;0.50;;
11082;SDS011;5595;50.186;8.468;2023-04-06T04:20:47;1.27;;;0.60;;
11082;SDS011;5595;50.186;8.468;2023-04-06T04:23:14;0.83;;;0.50;;
11082;SDS011;5595;50.186;8.468;2023-04-06T04:25:41;0.40;;;0.40;;
11082;SDS011;5595;50.186;8.468;2023-04-06T04:28:09;6.03;;;0.77;;
11082;SDS011;5595;50.186;8.468;2023-04-06T04:30:36;1.20;;;0.30;;
11082;SDS011;5595;50.186;8.468;2023-04-06T04:33:04;2.47;;;0.93;;
11082;SDS011;5595;50.186;8.468;2023-04-06T04:35:31;2.63;;;0.73;;
11082;SDS011;5595;50.186;8.468;2023-04-06T04:37:58;1.00;;;0.53;;
11082;SDS011;5595;50.186;8.468;2023-04-06T04:40:25;0.40;;;0.27;;
11082;SDS011;5595;50.186;8.468;2023-04-06T04:42:52;1.20;;;1.03;;
11082;SDS011;5595;50.186;8.468;2023-04-06T04:45:19;1.37;;;0.93;;
11082;SDS011;5595;50.186;8.468;2023-04-06T04:47:46;1.67;;;0.87;;
11082;SDS011;5595;50.186;8.468;2023-04-06T04:50:14;0.37;;;0.37;;
11082;SDS011;5595;50.186;8.468;2023-04-06T04:52:41;0.60;;;0.50;;
11082;SDS011;5595;50.186;8.468;2023-04-06T04:55:08;0.77;;;0.50;;
11082;SDS011;5595;50.186;8.468;2023-04-06T04:57:35;1.53;;;0.83;;
11082;SDS011;5595;50.186;8.468;2023-04-06T05:00:02;0.30;;;0.00;;
11082;SDS011;5595;50.186;8.468;2023-04-06T05:02:30;0.60;;;0.30;;
11082;SDS011;5595;50.186;8.468;2023-04-06T05:04:57;0.70;;;0.60;;
11082;SDS011;5595;50.186;8.468;2023-04-06T05:07:25;1.27;;;0.53;;
11082;SDS011;5595;50.186;8.468;2023-04-06T05:09:52;1.67;;;0.90;;
11082;SDS011;5595;50.186;8.468;2023-04-06T05:12:19;0.20;;;0.20;;
11082;SDS011;5595;50.186;8.468;2023-04-06T05:14:46;3.83;;;0.93;;
11082;SDS011;5595;50.186;8.468;2023-04-06T05:17:14;0.50;;;0.50;;
11082;SDS011;5595;50.186;8.468;2023-04-06T05:19:41;1.93;;;0.87;;
11082;SDS011;5595;50.186;8.468;2023-04-06T05:22:08;1.90;;;0.90;;
11082;SDS011;5595;50.186;8.468;2023-04-06T05:24:36;1.57;;;0.53;;
11082;SDS011;5595;50.186;8.468;2023-04-06T05:27:05;2.53;;;0.80;;
11082;SDS011;5595;50.186;8.468;2023-04-06T05:29:32;0.83;;;0.53;;
11082;SDS011;5595;50.186;8.468;2023-04-06T05:32:00;1.37;;;0.90;;
11082;SDS011;5595;50.186;8.468;2023-04-06T05:34:27;1.60;;;0.70;;
11082;SDS011;5595;50.186;8.468;2023-04-06T05:36:54;1.03;;;0.70;;
11082;SDS011;5595;50.186;8.468;2023-04-06T05:39:21;1.20;;;0.50;;
11082;SDS011;5595;50.186;8.468;2023-04-06T05:41:50;1.47;;;0.63;;
11082;SDS011;5595;50.186;8.468;2023-04-06T05:44:17;1.33;;;0.90;;
11082;SDS011;5595;50.186;8.468;2023-04-06T05:46:44;2.33;;;1.03;;
11082;SDS011;5595;50.186;8.468;2023-04-06T05:49:11;0.70;;;0.40;;
11082;SDS011;5595;50.186;8.468;2023-04-06T05:51:38;2.27;;;0.87;;
11082;SDS011;5595;50.186;8.468;2023-04-06T05:54:05;7.23;;;1.20;;
11082;SDS011;5595;50.186;8.468;2023-04-06T05:56:32;2.23;;;1.10;;
11082;SDS011;5595;50.186;8.468;2023-04-06T05:59:00;1.83;;;1.03;;
11082;SDS011;5595;50.186;8.468;2023-04-06T06:01:27;1.60;;;1.10;;
11082;SDS011;5595;50.186;8.468;2023-04-06T06:03:54;1.70;;;1.30;;
11082;SDS011;5595;50.186;8.468;2023-04-06T06:06:21;2.67;;;1.17;;
11082;SDS011;5595;50.186;8.468;2023-04-06T06:08:48;6.30;;;1.63;;
11082;SDS011;5595;50.186;8.468;2023-04-06T06:11:15;3.43;;;1.30;;
11082;SDS011;5595;50.186;8.468;2023-04-06T06:13:42;2.07;;;1.23;;
11082;SDS011;5595;50.186;8.468;2023-04-06T06:16:10;3.60;;;1.63;;
11082;SDS011;5595;50.186;8.468;2023-04-06T06:18:37;3.60;;;1.37;;
11082;SDS011;5595;50.186;8.468;2023-04-06T06:21:04;3.13;;;1.33;;
11082;SDS011;5595;50.186;8.468;2023-04-06T06:23:31;5.17;;;1.87;;
11082;SDS011;5595;50.186;8.468;2023-04-06T06:25:58;4.90;;;1.73;;
11082;SDS011;5595;50.186;8.468;2023-04-06T06:28:26;3.63;;;1.73;;
11082;SDS011;5595;50.186;8.468;2023-04-06T06:30:53;4.00;;;2.27;;
11082;SDS011;5595;50.186;8.468;2023-04-06T06:33:21;4.47;;;2.27;;
11082;SDS011;5595;50.186;8.468;2023-04-06T06:35:48;4.37;;;2.23;;
11082;SDS011;5595;50.186;8.468;2023-04-06T06:38:16;5.60;;;2.83;;
11082;SDS011;5595;50.186;8.468;2023-04-06T06:40:44;5.37;;;1.90;;
11082;SDS011;5595;50.186;8.468;2023-04-06T06:43:12;4.37;;;2.00;;
11082;SDS011;5595;50.186;8.468;2023-04-06T06:45:39;6.37;;;2.37;;
11082;SDS011;5595;50.186;8.468;2023-04-06T06:48:06;3.97;;;1.87;;
11082;SDS011;5595;50.186;8.468;2023-04-06T06:50:35;4.63;;;1.97;;
11082;SDS011;5595;50.186;8.468;2023-04-06T06:53:02;5.67;;;2.43;;
11082;SDS011;5595;50.186;8.468;2023-04-06T06:55:29;4.53;;;2.10;;
11082;SDS011;5595;50.186;8.468;2023-04-06T06:57:56;6.20;;;2.60;;
11082;SDS011;5595;50.186;8.468;2023-04-06T07:00:23;6.37;;;3.03;;
11082;SDS011;5595;50.186;8.468;2023-04-06T07:02:50;5.17;;;2.57;;
11082;SDS011;5595;50.186;8.468;2023-04-06T07:05:17;4.73;;;2.63;;
11082;SDS011;5595;50.186;8.468;2023-04-06T07:07:46;6.77;;;3.47;;
11082;SDS011;5595;50.186;8.468;2023-04-06T07:10:12;3.87;;;2.80;;
11082;SDS011;5595;50.186;8.468;2023-04-06T07:12:39;7.50;;;3.40;;
11082;SDS011;5595;50.186;8.468;2023-04-06T07:15:07;7.63;;;3.90;;
11082;SDS011;5595;50.186;8.468;2023-04-06T07:17:34;7.33;;;4.07;;
11082;SDS011;5595;50.186;8.468;2023-04-06T07:20:01;6.37;;;4.03;;
11082;SDS011;5595;50.186;8.468;2023-04-06T07:22:30;7.00;;;3.77;;
11082;SDS011;5595;50.186;8.468;2023-04-06T07:24:58;6.23;;;3.67;;
11082;SDS011;5595;50.186;8.468;2023-04-06T07:27:25;6.43;;;4.00;;
11082;SDS011;5595;50.186;8.468;2023-04-06T07:29:52;5.13;;;3.73;;
11082;SDS011;5595;50.186;8.468;2023-04-06T07:32:20;5.60;;;3.13;;
11082;SDS011;5595;50.186;8.468;2023-04-06T07:34:47;10.43;;;4.10;;
11082;SDS011;5595;50.186;8.468;2023-04-06T07:37:14;8.50;;;3.73;;
11082;SDS011;5595;50.186;8.468;2023-04-06T07:39:41;6.77;;;3.73;;
11082;SDS011;5595;50.186;8.468;2023-04-06T07:42:09;6.53;;;3.83;;
11082;SDS011;5595;50.186;8.468;2023-04-06T07:44:36;6.43;;;3.27;;
11082;SDS011;5595;50.186;8.468;2023-04-06T07:47:03;7.67;;;4.47;;
11082;SDS011;5595;50.186;8.468;2023-04-06T07:49:30;9.53;;;5.90;;
11082;SDS011;5595;50.186;8.468;2023-04-06T07:51:58;5.50;;;3.10;;
11082;SDS011;5595;50.186;8.468;2023-04-06T07:54:25;8.00;;;3.27;;
11082;SDS011;5595;50.186;8.468;2023-04-06T07:56:52;5.13;;;3.00;;
11082;SDS011;5595;50.186;8.468;2023-04-06T07:59:20;7.73;;;3.60;;
11082;SDS011;5595;50.186;8.468;2023-04-06T08:01:47;6.53;;;3.40;;
11082;SDS011;5595;50.186;8.468;2023-04-06T08:04:15;8.43;;;3.57;;
11082;SDS011;5595;50.186;8.468;2023-04-06T08:06:42;6.03;;;3.47;;
11082;SDS011;5595;50.186;8.468;2023-04-06T08:09:08;3.03;;;2.43;;
11082;SDS011;5595;50.186;8.468;2023-04-06T08:11:35;5.27;;;3.20;;
11082;SDS011;5595;50.186;8.468;2023-04-06T08:14:02;10.30;;;3.80;;
11082;SDS011;5595;50.186;8.468;2023-04-06T08:16:31;4.83;;;3.47;;
11082;SDS011;5595;50.186;8.468;2023-04-06T08:18:58;5.67;;;2.93;;
11082;SDS011;5595;50.186;8.468;2023-04-06T08:21:25;7.53;;;3.23;;
11082;SDS011;5595;50.186;8.468;2023-04-06T08:23:52;6.47;;;3.57;;
11082;SDS011;5595;50.186;8.468;2023-04-06T08:26:19;7.03;;;4.07;;
11082;SDS011;5595;50.186;8.468;2023-04-06T08:28:46;9.00;;;3.90;;
11082;SDS011;5595;50.186;8.468;2023-04-06T08:31:13;4.47;;;3.17;;
11082;SDS011;5595;50.186;8.468;2023-04-06T08:33:41;7.20;;;3.27;;
11082;SDS011;5595;50.186;8.468;2023-04-06T08:36:09;5.10;;;3.37;;
11082;SDS011;5595;50.186;8.468;2023-04-06T08:38:37;5.93;;;3.67;;
11082;SDS011;5595;50.186;8.468;2023-04-06T08:41:08;6.80;;;3.70;;
11082;SDS011;5595;50.186;8.468;2023-04-06T08:43:36;7.53;;;3.70;;
11082;SDS011;5595;50.186;8.468;2023-04-06T08:46:08;6.40;;;3.77;;
11082;SDS011;5595;50.186;8.468;2023-04-06T08:48:35;8.00;;;4.37;;
11082;SDS011;5595;50.186;8.468;2023-04-06T08:51:05;5.20;;;3.50;;
11082;SDS011;5595;50.186;8.468;2023-04-06T08:53:32;5.30;;;4.00;;
11082;SDS011;5595;50.186;8.468;2023-04-06T08:55:59;6.40;;;3.70;;
11082;SDS011;5595;50.186;8.468;2023-04-06T08:58:28;6.57;;;3.93;;
11082;SDS011;5595;50.186;8.468;2023-04-06T09:00:58;6.13;;;3.60;;
11082;SDS011;5595;50.186;8.468;2023-04-06T09:03:27;5.90;;;3.83;;
11082;SDS011;5595;50.186;8.468;2023-04-06T09:05:57;10.93;;;3.97;;
11082;SDS011;5595;50.186;8.468;2023-04-06T09:08:26;5.00;;;3.70;;
11082;SDS011;5595;50.186;8.468;2023-04-06T09:10:53;6.10;;;3.93;;
11082;SDS011;5595;50.186;8.468;2023-04-06T09:13:20;7.53;;;4.30;;
11082;SDS011;5595;50.186;8.468;2023-04-06T09:15:57;5.07;;;3.50;;
11082;SDS011;5595;50.186;8.468;2023-04-06T09:18:30;7.20;;;3.93;;
11082;SDS011;5595;50.186;8.468;2023-04-06T09:21:02;5.17;;;3.57;;
11082;SDS011;5595;50.186;8.468;2023-04-06T09:23:32;6.20;;;3.70;;
11082;SDS011;5595;50.186;8.468;2023-04-06T09:26:06;6.80;;;3.43;;
11082;SDS011;5595;50.186;8.468;2023-04-06T09:28:42;7.10;;;4.20;;
11082;SDS011;5595;50.186;8.468;2023-04-06T09:31:10;8.40;;;4.03;;
11082;SDS011;5595;50.186;8.468;2023-04-06T09:33:40;7.63;;;3.80;;
11082;SDS011;5595;50.186;8.468;2023-04-06T09:36:08;5.93;;;3.90;;
11082;SDS011;5595;50.186;8.468;2023-04-06T09:38:52;5.20;;;3.50;;
11082;SDS011;5595;50.186;8.468;2023-04-06T09:41:21;5.60;;;3.40;;
11082;SDS011;5595;50.186;8.468;2023-04-06T09:43:49;4.90;;;3.37;;
11082;SDS011;5595;50.186;8.468;2023-04-06T09:46:17;4.23;;;3.23;;
11082;SDS011;5595;50.186;8.468;2023-04-06T09:48:47;5.90;;;3.90;;
11082;SDS011;5595;50.186;8.468;2023-04-06T09:51:15;5.17;;;3.93;;
11082;SDS011;5595;50.186;8.468;2023-04-06T09:53:46;7.37;;;3.97;;
11082;SDS011;5595;50.186;8.468;2023-04-06T09:56:17;5.87;;;4.07;;
11082;SDS011;5595;50.186;8.468;2023-04-06T09:58:48;6.77;;;3.80;;
11082;SDS011;5595;50.186;8.468;2023-04-06T10:01:19;6.23;;;4.07;;
11082;SDS011;5595;50.186;8.468;2023-04-06T10:03:50;5.53;;;3.37;;
11082;SDS011;5595;50.186;8.468;2023-04-06T10:06:22;6.27;;;3.60;;
11082;SDS011;5595;50.186;8.468;2023-04-06T10:08:54;6.40;;;3.73;;
11082;SDS011;5595;50.186;8.468;2023-04-06T10:11:22;6.43;;;3.70;;
11082;SDS011;5595;50.186;8.468;2023-04-06T10:13:50;5.93;;;3.83;;
11082;SDS011;5595;50.186;8.468;2023-04-06T10:16:17;8.57;;;4.00;;
11082;SDS011;5595;50.186;8.468;2023-04-06T10:18:44;9.95;;;4.35;;
11082;SDS011;5595;50.186;8.468;2023-04-06T10:21:19;9.77;;;4.53;;
11082;SDS011;5595;50.186;8.468;2023-04-06T10:23:51;4.30;;;3.33;;
11082;SDS011;5595;50.186;8.468;2023-04-06T10:26:21;7.57;;;4.45;;
11082;SDS011;5595;50.186;8.468;2023-04-06T10:28:49;9.27;;;3.88;;
11082;SDS011;5595;50.186;8.468;2023-04-06T10:31:23;4.53;;;3.40;;
11082;SDS011;5595;50.186;8.468;2023-04-06T10:33:54;6.22;;;3.42;;
11082;SDS011;5595;50.186;8.468;2023-04-06T10:36:22;6.78;;;3.58;;
11082;SDS011;5595;50.186;8.468;2023-04-06T10:38:53;10.35;;;5.80;;
11082;SDS011;5595;50.186;8.468;2023-04-06T10:41:23;7.57;;;4.15;;
11082;SDS011;5595;50.186;8.468;2023-04-06T10:43:57;13.80;;;4.43;;
11082;SDS011;5595;50.186;8.468;2023-04-06T10:46:26;6.38;;;3.97;;
11082;SDS011;5595;50.186;8.468;2023-04-06T10:48:56;6.75;;;4.50;;
11082;SDS011;5595;50.186;8.468;2023-04-06T10:51:25;4.82;;;3.25;;
11082;SDS011;5595;50.186;8.468;2023-04-06T10:53:54;7.00;;;3.67;;
11082;SDS011;5595;50.186;8.468;2023-04-06T10:56:24;6.75;;;3.40;;
11082;SDS011;5595;50.186;8.468;2023-04-06T10:58:53;5.32;;;3.58;;
11082;SDS011;5595;50.186;8.468;2023-04-06T11:01:22;4.78;;;3.08;;
11082;SDS011;5595;50.186;8.468;2023-04-06T11:03:50;5.72;;;3.45;;
11082;SDS011;5595;50.186;8.468;2023-04-06T11:06:19;4.90;;;3.53;;
11082;SDS011;5595;50.186;8.468;2023-04-06T11:08:47;7.32;;;4.07;;
11082;SDS011;5595;50.186;8.468;2023-04-06T11:11:15;4.65;;;3.58;;
11082;SDS011;5595;50.186;8.468;2023-04-06T11:13:45;5.40;;;3.20;;
11082;SDS011;5595;50.186;8.468;2023-04-06T11:16:14;4.30;;;3.03;;
11082;SDS011;5595;50.186;8.468;2023-04-06T11:18:48;5.35;;;3.10;;
11082;SDS011;5595;50.186;8.468;2023-04-06T11:21:16;8.75;;;3.30;;
11082;SDS011;5595;50.186;8.468;2023-04-06T11:23:44;6.22;;;3.80;;
11082;SDS011;5595;50.186;8.468;2023-04-06T11:26:12;6.75;;;3.95;;
11082;SDS011;5595;50.186;8.468;2023-04-06T11:28:40;5.07;;;3.70;;
11082;SDS011;5595;50.186;8.468;2023-04-06T11:31:10;5.38;;;3.13;;
11082;SDS011;5595;50.186;8.468;2023-04-06T11:33:43;6.93;;;4.05;;
11082;SDS011;5595;50.186;8.468;2023-04-06T11:36:11;9.65;;;3.25;;
11082;SDS011;5595;50.186;8.468;2023-04-06T11:38:40;8.60;;;4.20;;
11082;SDS011;5595;50.186;8.468;2023-04-06T11:41:07;7.00;;;3.47;;
11082;SDS011;5595;50.186;8.468;2023-04-06T11:43:34;4.75;;;3.22;;
11082;SDS011;5595;50.186;8.468;2023-04-06T11:46:01;4.65;;;3.17;;
11082;SDS011;5595;50.186;8.468;2023-04-06T11:48:43;7.28;;;4.30;;
11082;SDS011;5595;50.186;8.468;2023-04-06T11:51:10;4.78;;;3.10;;
11082;SDS011;5595;50.186;8.468;2023-04-06T11:53:43;7.40;;;4.43;;
11082;SDS011;5595;50.186;8.468;2023-04-06T11:56:11;10.80;;;4.82;;
11082;SDS011;5595;50.186;8.468;2023-04-06T11:58:48;6.85;;;4.43;;
11082;SDS011;5595;50.186;8.468;2023-04-06T12:01:18;11.45;;;4.38;;
11082;SDS011;5595;50.186;8.468;2023-04-06T12:03:47;7.00;;;4.28;;
11082;SDS011;5595;50.186;8.468;2023-04-06T12:06:14;7.03;;;4.05;;
11082;SDS011;5595;50.186;8.468;2023-04-06T12:08:44;5.75;;;3.80;;
11082;SDS011;5595;50.186;8.468;2023-04-06T12:11:12;6.78;;;3.80;;
11082;SDS011;5595;50.186;8.468;2023-04-06T12:13:39;8.48;;;4.22;;
11082;SDS011;5595;50.186;8.468;2023-04-06T12:16:07;7.13;;;3.60;;
11082;SDS011;5595;50.186;8.468;2023-04-06T12:18:34;8.75;;;3.83;;
11082;SDS011;5595;50.186;8.468;2023-04-06T12:21:03;7.18;;;4.65;;
11082;SDS011;5595;50.186;8.468;2023-04-06T12:23:31;7.07;;;4.32;;
11082;SDS011;5595;50.186;8.468;2023-04-06T12:25:58;6.85;;;4.35;;
11082;SDS011;5595;50.186;8.468;2023-04-06T12:28:26;8.80;;;3.60;;
11082;SDS011;5595;50.186;8.468;2023-04-06T12:30:55;10.13;;;3.65;;
11082;SDS011;5595;50.186;8.468;2023-04-06T12:33:23;7.35;;;3.70;;
11082;SDS011;5595;50.186;8.468;2023-04-06T12:35:50;6.25;;;3.92;;
11082;SDS011;5595;50.186;8.468;2023-04-06T12:38:18;7.57;;;3.97;;
11082;SDS011;5595;50.186;8.468;2023-04-06T12:40:45;7.32;;;4.00;;
11082;SDS011;5595;50.186;8.468;2023-04-06T12:43:12;5.70;;;4.15;;
11082;SDS011;5595;50.186;8.468;2023-04-06T12:45:39;6.65;;;3.72;;
11082;SDS011;5595;50.186;8.468;2023-04-06T12:48:07;6.47;;;4.13;;
11082;SDS011;5595;50.186;8.468;2023-04-06T12:50:37;4.10;;;3.30;;
11082;SDS011;5595;50.186;8.468;2023-04-06T12:53:06;5.50;;;3.40;;
11082;SDS011;5595;50.186;8.468;2023-04-06T12:55:34;5.22;;;3.58;;
11082;SDS011;5595;50.186;8.468;2023-04-06T12:58:01;6.05;;;4.15;;
11082;SDS011;5595;50.186;8.468;2023-04-06T13:00:29;6.60;;;3.65;;
11082;SDS011;5595;50.186;8.468;2023-04-06T13:02:57;5.00;;;3.40;;
11082;SDS011;5595;50.186;8.468;2023-04-06T13:05:24;7.15;;;3.60;;
11082;SDS011;5595;50.186;8.468;2023-04-06T13:07:51;6.82;;;4.05;;
11082;SDS011;5595;50.186;8.468;2023-04-06T13:10:18;5.72;;;3.78;;
11082;SDS011;5595;50.186;8.468;2023-04-06T13:12:46;6.28;;;3.83;;
11082;SDS011;5595;50.186;8.468;2023-04-06T13:15:13;4.60;;;3.65;;
11082;SDS011;5595;50.186;8.468;2023-04-06T13:17:41;9.20;;;4.28;;
11082;SDS011;5595;50.186;8.468;2023-04-06T13:20:08;5.43;;;3.83;;
11082;SDS011;5595;50.186;8.468;2023-04-06T13:22:35;5.45;;;3.20;;
11082;SDS011;5595;50.186;8.468;2023-04-06T13:25:03;5.93;;;3.92;;
11082;SDS011;5595;50.186;8.468;2023-04-06T13:27:30;5.32;;;3.70;;
11082;SDS011;5595;50.186;8.468;2023-04-06T13:30:00;6.05;;;3.60;;
11082;SDS011;5595;50.186;8.468;2023-04-06T13:35:26;6.53;;;3.65;;
11082;SDS011;5595;50.186;8.468;2023-04-06T13:37:53;6.00;;;3.63;;
11082;SDS011;5595;50.186;8.468;2023-04-06T13:40:20;4.78;;;3.72;;
11082;SDS011;5595;50.186;8.468;2023-04-06T13:42:47;4.97;;;3.05;;
11082;SDS011;5595;50.186;8.468;2023-04-06T13:45:18;6.18;;;3.72;;
11082;SDS011;5595;50.186;8.468;2023-04-06T13:47:45;7.07;;;2.88;;
11082;SDS011;5595;50.186;8.468;2023-04-06T13:50:12;6.30;;;3.80;;
11082;SDS011;5595;50.186;8.468;2023-04-06T13:52:39;6.13;;;3.47;;
11082;SDS011;5595;50.186;8.468;2023-04-06T13:55:09;5.53;;;3.33;;
11082;SDS011;5595;50.186;8.468;2023-04-06T13:57:36;6.13;;;3.28;;
11082;SDS011;5595;50.186;8.468;2023-04-06T14:00:04;7.63;;;4.03;;
11082;SDS011;5595;50.186;8.468;2023-04-06T14:02:33;8.57;;;4.43;;
11082;SDS011;5595;50.186;8.468;2023-04-06T14:05:00;6.22;;;3.83;;
11082;SDS011;5595;50.186;8.468;2023-04-06T14:07:27;6.85;;;4.10;;
11082;SDS011;5595;50.186;8.468;2023-04-06T14:09:54;5.78;;;3.75;;
11082;SDS011;5595;50.186;8.468;2023-04-06T14:12:23;5.97;;;3.58;;
11082;SDS011;5595;50.186;8.468;2023-04-06T14:14:53;5.82;;;3.35;;
11082;SDS011;5595;50.186;8.468;2023-04-06T14:17:20;6.03;;;3.22;;
11082;SDS011;5595;50.186;8.468;2023-04-06T14:19:49;6.53;;;3.08;;
11082;SDS011;5595;50.186;8.468;2023-04-06T14:22:18;5.80;;;3.55;;
11082;SDS011;5595;50.186;8.468;2023-04-06T14:24:55;6.57;;;3.55;;
11082;SDS011;5595;50.186;8.468;2023-04-06T14:27:22;5.30;;;2.92;;
11082;SDS011;5595;50.186;8.468;2023-04-06T14:29:51;4.97;;;3.42;;
11082;SDS011;5595;50.186;8.468;2023-04-06T14:32:19;5.32;;;3.33;;
11082;SDS011;5595;50.186;8.468;2023-04-06T14:34:46;7.45;;;3.42;;
11082;SDS011;5595;50.186;8.468;2023-04-06T14:37:14;6.30;;;3.63;;
11082;SDS011;5595;50.186;8.468;2023-04-06T14:39:42;5.25;;;2.90;;
11082;SDS011;5595;50.186;8.468;2023-04-06T14:42:09;5.75;;;3.20;;
11082;SDS011;5595;50.186;8.468;2023-04-06T14:44:36;5.68;;;2.75;;
11082;SDS011;5595;50.186;8.468;2023-04-06T14:47:07;4.47;;;2.78;;
11082;SDS011;5595;50.186;8.468;2023-04-06T14:49:34;4.75;;;2.95;;
11082;SDS011;5595;50.186;8.468;2023-04-06T14:52:01;5.40;;;2.72;;
11082;SDS011;5595;50.186;8.468;2023-04-06T14:54:30;4.50;;;2.67;;
11082;SDS011;5595;50.186;8.468;2023-04-06T14:56:57;5.50;;;2.95;;
11082;SDS011;5595;50.186;8.468;2023-04-06T14:59:25;5.13;;;2.72;;
11082;SDS011;5595;50.186;8.468;2023-04-06T15:01:52;4.68;;;2.83;;
11082;SDS011;5595;50.186;8.468;2023-04-06T15:04:19;7.18;;;2.90;;
11082;SDS011;5595;50.186;8.468;2023-04-06T15:06:46;5.82;;;3.03;;